Terminal Aerodrome Forecast
Issued by NWS Northern Indiana

Home | Current Version | Previous Version | Graphics & Text | Print | Product List | Glossary On
Versions: 1 2 3 4 5 6 7 8 9 10 11 12 13 14 15 16 17
000
FTUS43 KIWX 230538
TAFFWA
TAF
KFWA 230538Z 2306/2406 09011KT 3SM BR OVC005
      TEMPO 2306/2309 1 1/2SM -DZ BR OVC003
     FM230900 12009KT 1SM -RA BR OVC003
     FM231300 19007KT 2SM -RA BR OVC003
     FM231500 22008KT 5SM -RA BR OVC004
     FM231700 26010KT P6SM OVC008
     FM240100 29006KT P6SM BKN020=

USA.gov is the U.S. government's official web portal to all federal, state and local government web resources and services.